Time;durP1;ratioP1;P1;durP2;ratioP2;P2;SDS_P1;SDS_P2;PMS_P1;PMS_P2;Temp;Humidity;BMP_temperature;BMP_pressure;BME280_temperature;BME280_humidity;BME280_pressure;Samples;Min_cycle;Max_cycle;Signal;HPM_P1;HPM_P2
2020/12/29 00:02:52;;;;;;;9.73;4.60;;;;;;;;;;10446817;27;20071;-63
2020/12/29 00:07:56;;;;;;;14.93;6.53;;;;;;;;;;10445506;27;20066;-63
2020/12/29 00:12:53;;;;;;;7.50;3.35;;;;;;;;;;10443154;27;20047;-62
2020/12/29 00:17:50;;;;;;;8.38;3.33;;;;;;;;;;10444514;27;20074;-63
2020/12/29 00:22:48;;;;;;;5.53;2.42;;;;;;;;;;10444750;27;20050;-64
2020/12/29 00:27:46;;;;;;;4.70;3.10;;;;;;;;;;10445164;27;20042;-63
2020/12/29 00:32:43;;;;;;;12.68;5.55;;;;;;;;;;10445298;27;20071;-64
2020/12/29 00:37:41;;;;;;;11.95;6.38;;;;;;;;;;10444604;27;20078;-64
2020/12/29 00:42:39;;;;;;;13.40;5.82;;;;;;;;;;10443830;27;20039;-62
2020/12/29 00:47:38;;;;;;;11.35;6.95;;;;;;;;;;10423305;27;20423;-61
2020/12/29 00:52:35;;;;;;;2.92;2.20;;;;;;;;;;10441398;27;20078;-62
2020/12/29 00:57:46;;;;;;;6.13;2.55;;;;;;;;;;10423012;27;20050;-63
2020/12/29 01:02:44;;;;;;;5.90;3.08;;;;;;;;;;10423466;27;20062;-64
2020/12/29 01:07:50;;;;;;;8.43;5.28;;;;;;;;;;10424340;27;20427;-63
2020/12/29 01:12:49;;;;;;;5.03;3.40;;;;;;;;;;10424491;27;20043;-63
2020/12/29 01:17:47;;;;;;;12.90;8.10;;;;;;;;;;10423226;27;20078;-64
2020/12/29 01:22:44;;;;;;;12.07;6.72;;;;;;;;;;10442949;27;20039;-62
2020/12/29 01:27:41;;;;;;;5.75;3.47;;;;;;;;;;10442915;27;20035;-62
2020/12/29 01:32:40;;;;;;;8.30;3.97;;;;;;;;;;10442762;27;20043;-63
2020/12/29 01:37:41;;;;;;;9.85;6.13;;;;;;;;;;10439658;27;20086;-62
2020/12/29 01:42:38;;;;;;;8.73;4.57;;;;;;;;;;10439657;27;20106;-62
2020/12/29 01:47:37;;;;;;;12.60;5.68;;;;;;;;;;10442489;27;20404;-64
2020/12/29 01:52:36;;;;;;;23.92;9.80;;;;;;;;;;10438627;27;20567;-63
2020/12/29 01:57:33;;;;;;;3.88;2.60;;;;;;;;;;10439111;27;20089;-64
2020/12/29 02:02:31;;;;;;;14.15;6.18;;;;;;;;;;10440419;27;20039;-62
2020/12/29 02:07:28;;;;;;;5.97;3.38;;;;;;;;;;10442461;27;20073;-64
2020/12/29 02:12:28;;;;;;;13.60;5.68;;;;;;;;;;10441946;27;20157;-63
2020/12/29 02:17:25;;;;;;;12.75;6.40;;;;;;;;;;10440845;27;20523;-64
2020/12/29 02:22:24;;;;;;;22.55;12.85;;;;;;;;;;10439958;27;20090;-64
2020/12/29 02:27:23;;;;;;;10.85;6.60;;;;;;;;;;10440771;27;20077;-63
2020/12/29 02:32:20;;;;;;;4.93;2.38;;;;;;;;;;10439902;27;20090;-63
2020/12/29 02:37:18;;;;;;;3.55;2.22;;;;;;;;;;10438646;27;20070;-64
2020/12/29 02:42:16;;;;;;;3.20;1.90;;;;;;;;;;10440795;27;20070;-62
2020/12/29 02:47:13;;;;;;;3.80;2.38;;;;;;;;;;10438870;27;20073;-63
2020/12/29 02:52:11;;;;;;;9.05;5.55;;;;;;;;;;10438424;27;20085;-63
2020/12/29 02:57:08;;;;;;;6.53;2.70;;;;;;;;;;10440476;27;20067;-63
2020/12/29 03:02:07;;;;;;;3.92;2.00;;;;;;;;;;10438689;27;20039;-64
2020/12/29 03:07:05;;;;;;;5.60;3.22;;;;;;;;;;10439725;27;20066;-62
2020/12/29 03:12:02;;;;;;;6.72;2.03;;;;;;;;;;10440006;27;20066;-64
2020/12/29 03:17:01;;;;;;;3.45;2.58;;;;;;;;;;10438759;27;20078;-63
2020/12/29 03:21:59;;;;;;;5.35;2.22;;;;;;;;;;10436871;28;20046;-64
2020/12/29 03:26:56;;;;;;;4.45;2.20;;;;;;;;;;10437382;27;20046;-63
2020/12/29 03:31:53;;;;;;;4.68;2.75;;;;;;;;;;10439127;28;20043;-64
2020/12/29 03:36:51;;;;;;;5.80;2.75;;;;;;;;;;10437174;28;20074;-63
2020/12/29 03:41:49;;;;;;;4.97;3.53;;;;;;;;;;10438952;28;20067;-63
2020/12/29 03:46:46;;;;;;;4.45;2.13;;;;;;;;;;10438906;28;20035;-63
2020/12/29 03:51:44;;;;;;;4.88;2.15;;;;;;;;;;10437447;28;20063;-63
2020/12/29 03:56:41;;;;;;;4.13;2.70;;;;;;;;;;10438392;28;20106;-63
2020/12/29 04:01:39;;;;;;;2.35;1.75;;;;;;;;;;10438450;28;20062;-64
2020/12/29 04:06:37;;;;;;;5.30;2.17;;;;;;;;;;10435375;28;20075;-62
2020/12/29 04:11:34;;;;;;;6.80;2.03;;;;;;;;;;10435415;28;20078;-63
2020/12/29 04:16:31;;;;;;;4.78;2.08;;;;;;;;;;10438564;28;20067;-62
2020/12/29 04:21:30;;;;;;;2.53;2.03;;;;;;;;;;10437001;28;20077;-63
2020/12/29 04:26:27;;;;;;;8.07;5.05;;;;;;;;;;10437758;28;20031;-63
2020/12/29 04:31:25;;;;;;;10.82;8.10;;;;;;;;;;10437909;28;20059;-64
2020/12/29 04:36:22;;;;;;;39.95;20.63;;;;;;;;;;10435365;27;20082;-63
2020/12/29 04:41:21;;;;;;;5.53;2.80;;;;;;;;;;10439106;27;20116;-63
2020/12/29 04:46:18;;;;;;;6.20;2.67;;;;;;;;;;10441980;27;20204;-63
2020/12/29 04:51:16;;;;;;;5.50;2.40;;;;;;;;;;10438170;27;20075;-63
2020/12/29 04:56:14;;;;;;;4.13;2.80;;;;;;;;;;10442112;27;20071;-63
2020/12/29 05:01:13;;;;;;;2.17;1.70;;;;;;;;;;10442273;27;20078;-63
2020/12/29 05:06:28;;;;;;;;;;;;;;;;;;10442361;27;20089;-63
2020/12/29 05:11:25;;;;;;;3.13;1.95;;;;;;;;;;10442387;27;19961;-63
2020/12/29 05:16:24;;;;;;;5.80;3.30;;;;;;;;;;10441810;27;20067;-63
2020/12/29 05:21:23;;;;;;;2.92;1.67;;;;;;;;;;10441387;27;20520;-63
2020/12/29 05:26:25;;;;;;;2.00;1.70;;;;;;;;;;10441266;27;20051;-63
2020/12/29 05:31:22;;;;;;;2.92;1.70;;;;;;;;;;10440820;27;20073;-63
2020/12/29 05:36:21;;;;;;;3.10;1.90;;;;;;;;;;10441586;27;20472;-63
2020/12/29 05:41:21;;;;;;;4.43;2.75;;;;;;;;;;10441117;27;20039;-63
2020/12/29 05:46:22;;;;;;;4.75;2.72;;;;;;;;;;10437677;27;20047;-63
2020/12/29 05:51:21;;;;;;;6.63;3.13;;;;;;;;;;10440170;27;20606;-64
2020/12/29 05:56:19;;;;;;;7.78;2.65;;;;;;;;;;10439418;27;20075;-62
2020/12/29 06:01:16;;;;;;;4.35;2.72;;;;;;;;;;10437725;27;20046;-62
2020/12/29 06:06:14;;;;;;;14.95;9.10;;;;;;;;;;10438628;27;20043;-63
2020/12/29 06:11:13;;;;;;;21.63;11.02;;;;;;;;;;10440203;27;20062;-63
2020/12/29 06:16:11;;;;;;;10.73;5.00;;;;;;;;;;10438477;27;20491;-62
2020/12/29 06:21:09;;;;;;;14.20;8.88;;;;;;;;;;10420561;27;20569;-63
2020/12/29 06:26:09;;;;;;;12.57;7.53;;;;;;;;;;10438606;27;20113;-62
2020/12/29 06:31:09;;;;;;;9.73;6.68;;;;;;;;;;10437995;27;20082;-64
2020/12/29 06:36:09;;;;;;;4.93;3.05;;;;;;;;;;10438031;27;20086;-63
2020/12/29 06:41:07;;;;;;;5.45;3.85;;;;;;;;;;10438297;27;20055;-64
2020/12/29 06:46:12;;;;;;;4.55;3.20;;;;;;;;;;10438415;27;20496;-63
2020/12/29 06:51:10;;;;;;;4.75;3.28;;;;;;;;;;10437188;27;20085;-63
2020/12/29 06:56:13;;;;;;;5.95;3.15;;;;;;;;;;10436575;27;20085;-63
2020/12/29 07:01:21;;;;;;;4.63;3.72;;;;;;;;;;10436437;27;20047;-63
2020/12/29 07:06:27;;;;;;;7.72;4.00;;;;;;;;;;10435552;27;20074;-62
2020/12/29 07:11:24;;;;;;;9.02;3.65;;;;;;;;;;10436408;27;20043;-63
2020/12/29 07:16:23;;;;;;;9.10;3.65;;;;;;;;;;10437375;27;20075;-63
2020/12/29 07:21:24;;;;;;;8.60;4.72;;;;;;;;;;10436544;27;20432;-63
2020/12/29 07:26:23;;;;;;;5.57;3.53;;;;;;;;;;10437680;28;20059;-62
2020/12/29 07:31:20;;;;;;;5.85;3.55;;;;;;;;;;10437728;28;20043;-62
2020/12/29 07:36:18;;;;;;;6.68;4.90;;;;;;;;;;10437275;28;20079;-63
2020/12/29 07:53:01;;;;;;;7.85;4.80;;;;;;;;;;10433895;28;20079;-63
2020/12/29 07:58:01;;;;;;;9.68;5.68;;;;;;;;;;10435088;28;20067;-63
2020/12/29 08:02:58;;;;;;;8.45;5.22;;;;;;;;;;10432980;28;20055;-64
2020/12/29 08:07:56;;;;;;;8.00;5.57;;;;;;;;;;10432620;28;20062;-62
2020/12/29 08:12:55;;;;;;;21.98;10.68;;;;;;;;;;10442631;27;20043;-63
2020/12/29 08:18:02;;;;;;;9.38;5.20;;;;;;;;;;10442465;27;20066;-63
2020/12/29 08:23:05;;;;;;;9.00;5.95;;;;;;;;;;10441241;27;20051;-65
2020/12/29 08:28:04;;;;;;;12.43;4.63;;;;;;;;;;10443693;27;20067;-64
2020/12/29 08:33:03;;;;;;;6.88;4.38;;;;;;;;;;10442928;27;20031;-63
2020/12/29 08:38:05;;;;;;;13.13;8.23;;;;;;;;;;10442786;27;20067;-63
2020/12/29 08:43:02;;;;;;;8.63;6.70;;;;;;;;;;10440436;27;20043;-63
2020/12/29 08:48:01;;;;;;;8.93;5.70;;;;;;;;;;10442629;27;20058;-63
2020/12/29 08:53:05;;;;;;;15.60;9.45;;;;;;;;;;10442201;27;20090;-63
2020/12/29 08:58:03;;;;;;;18.90;12.10;;;;;;;;;;10439679;27;20528;-64
2020/12/29 09:03:18;;;;;;;28.65;20.40;;;;;;;;;;10441735;27;20042;-62
2020/12/29 09:08:24;;;;;;;19.73;15.45;;;;;;;;;;10440868;27;20071;-63
2020/12/29 09:13:22;;;;;;;22.77;17.15;;;;;;;;;;10439215;27;20514;-63
2020/12/29 09:18:20;;;;;;;49.95;29.80;;;;;;;;;;10438428;27;20071;-63
2020/12/29 09:23:18;;;;;;;18.70;10.23;;;;;;;;;;10439901;27;20187;-63
2020/12/29 09:28:17;;;;;;;21.23;12.43;;;;;;;;;;10438832;27;20044;-63
2020/12/29 09:33:21;;;;;;;10.45;7.75;;;;;;;;;;10440924;27;20043;-63
2020/12/29 09:38:19;;;;;;;62.05;31.55;;;;;;;;;;10437443;27;20075;-63
2020/12/29 09:43:28;;;;;;;49.38;26.05;;;;;;;;;;10438983;27;20059;-62
2020/12/29 09:48:26;;;;;;;37.50;20.25;;;;;;;;;;10439971;27;20496;-62
2020/12/29 09:53:23;;;;;;;29.63;16.35;;;;;;;;;;10440582;27;20051;-62
2020/12/29 09:58:21;;;;;;;93.85;55.22;;;;;;;;;;10439977;27;20145;-63
2020/12/29 10:03:18;;;;;;;36.38;19.42;;;;;;;;;;10439874;27;20043;-63
2020/12/29 10:08:16;;;;;;;23.98;11.90;;;;;;;;;;10439712;27;20063;-63
2020/12/29 10:13:13;;;;;;;25.08;13.57;;;;;;;;;;10438962;27;20035;-63
2020/12/29 10:18:11;;;;;;;33.67;16.98;;;;;;;;;;10438645;27;20310;-62
2020/12/29 10:23:08;;;;;;;23.83;14.10;;;;;;;;;;10439049;27;20055;-63
2020/12/29 10:28:06;;;;;;;15.90;10.15;;;;;;;;;;10438604;27;20470;-63
2020/12/29 10:33:03;;;;;;;14.02;7.90;;;;;;;;;;10437066;27;20089;-63
2020/12/29 10:38:01;;;;;;;21.10;12.10;;;;;;;;;;10419212;27;20078;-63
2020/12/29 10:42:59;;;;;;;23.67;12.75;;;;;;;;;;10437599;27;20043;-64
2020/12/29 10:47:57;;;;;;;25.60;15.63;;;;;;;;;;10435157;27;20457;-62
2020/12/29 10:52:54;;;;;;;20.65;12.55;;;;;;;;;;10433501;27;20085;-63
2020/12/29 10:57:52;;;;;;;22.95;11.63;;;;;;;;;;10418394;27;20079;-63
2020/12/29 11:02:49;;;;;;;37.38;23.38;;;;;;;;;;10437265;27;20068;-63
2020/12/29 11:07:48;;;;;;;24.25;12.95;;;;;;;;;;10437781;27;20491;-63
2020/12/29 11:12:45;;;;;;;23.70;14.15;;;;;;;;;;10437369;27;20040;-63
2020/12/29 11:17:42;;;;;;;18.67;9.52;;;;;;;;;;10437208;27;20073;-63
2020/12/29 11:22:41;;;;;;;16.92;10.77;;;;;;;;;;10437571;27;20451;-63
2020/12/29 11:27:39;;;;;;;12.27;8.20;;;;;;;;;;10436418;27;20043;-63
2020/12/29 11:32:37;;;;;;;27.58;13.75;;;;;;;;;;10435453;28;20035;-64
2020/12/29 11:37:34;;;;;;;10.98;7.45;;;;;;;;;;10436795;28;20098;-64
2020/12/29 11:42:31;;;;;;;15.57;10.05;;;;;;;;;;10436992;28;20039;-63
2020/12/29 11:47:29;;;;;;;11.85;8.25;;;;;;;;;;10443836;27;20085;-64
2020/12/29 11:52:27;;;;;;;15.45;10.15;;;;;;;;;;10445522;27;20077;-64
2020/12/29 11:57:24;;;;;;;10.75;8.07;;;;;;;;;;10445477;27;20063;-64
2020/12/29 12:02:21;;;;;;;7.95;6.47;;;;;;;;;;10445268;27;20520;-64
2020/12/29 12:07:19;;;;;;;14.55;12.00;;;;;;;;;;10442836;27;20078;-64
2020/12/29 12:12:17;;;;;;;17.55;12.95;;;;;;;;;;10445638;27;20039;-64
2020/12/29 12:17:14;;;;;;;9.48;7.47;;;;;;;;;;10444696;27;20078;-64
2020/12/29 12:22:11;;;;;;;14.77;10.57;;;;;;;;;;10444038;27;20550;-64
2020/12/29 12:27:09;;;;;;;11.98;10.70;;;;;;;;;;10444355;27;20073;-64
2020/12/29 12:32:07;;;;;;;11.65;7.13;;;;;;;;;;10444310;27;20504;-64
2020/12/29 12:37:04;;;;;;;8.73;6.07;;;;;;;;;;10443447;27;20090;-64
2020/12/29 12:42:02;;;;;;;13.70;9.45;;;;;;;;;;10442562;27;20048;-63
2020/12/29 12:47:00;;;;;;;11.55;7.70;;;;;;;;;;10443714;27;20075;-63
2020/12/29 12:51:58;;;;;;;14.10;7.03;;;;;;;;;;10442681;27;20495;-63
2020/12/29 12:56:56;;;;;;;97.30;50.03;;;;;;;;;;10439309;27;20078;-63
2020/12/29 13:01:53;;;;;;;23.70;16.50;;;;;;;;;;10442288;27;20070;-64
2020/12/29 13:06:52;;;;;;;15.35;10.63;;;;;;;;;;10442722;27;20035;-62
2020/12/29 13:11:49;;;;;;;11.88;10.25;;;;;;;;;;10441706;27;20082;-64
2020/12/29 13:16:47;;;;;;;45.65;27.30;;;;;;;;;;10442762;27;20100;-64
2020/12/29 13:21:48;;;;;;;37.50;25.98;;;;;;;;;;10442699;27;20075;-63
2020/12/29 13:26:49;;;;;;;20.65;14.02;;;;;;;;;;10441256;27;20042;-63
2020/12/29 13:31:47;;;;;;;16.48;13.82;;;;;;;;;;10441102;27;20066;-63
2020/12/29 13:36:45;;;;;;;17.25;13.10;;;;;;;;;;10441068;27;20074;-63
2020/12/29 13:41:58;;;;;;;26.27;18.67;;;;;;;;;;10438424;27;20071;-62
2020/12/29 13:46:55;;;;;;;13.20;11.50;;;;;;;;;;10441490;27;20032;-63
2020/12/29 13:51:52;;;;;;;25.63;16.48;;;;;;;;;;10440262;27;20086;-63
2020/12/29 13:56:54;;;;;;;17.50;12.35;;;;;;;;;;10440849;27;20075;-63
2020/12/29 14:01:52;;;;;;;18.25;12.48;;;;;;;;;;10439495;27;20067;-63
2020/12/29 14:06:49;;;;;;;14.32;11.68;;;;;;;;;;10439940;27;20050;-64
2020/12/29 14:11:48;;;;;;;15.88;12.65;;;;;;;;;;10440220;27;20046;-63
2020/12/29 14:16:45;;;;;;;21.35;15.07;;;;;;;;;;10437259;27;20082;-63
2020/12/29 14:21:44;;;;;;;115.88;76.22;;;;;;;;;;10439656;27;20046;-64
2020/12/29 14:26:46;;;;;;;40.83;25.58;;;;;;;;;;10437163;27;20073;-63
2020/12/29 14:31:44;;;;;;;55.38;37.40;;;;;;;;;;10435893;27;20043;-62
2020/12/29 14:36:42;;;;;;;83.85;51.50;;;;;;;;;;10435839;27;20035;-63
2020/12/29 14:41:41;;;;;;;83.30;52.20;;;;;;;;;;10438887;27;20126;-63
2020/12/29 14:46:39;;;;;;;62.05;35.65;;;;;;;;;;10438429;27;20043;-63
2020/12/29 14:51:36;;;;;;;33.05;23.65;;;;;;;;;;10437358;27;20066;-63
2020/12/29 14:56:34;;;;;;;38.65;23.75;;;;;;;;;;10438808;27;20031;-64
2020/12/29 15:01:33;;;;;;;45.33;33.42;;;;;;;;;;10437623;27;20074;-63
2020/12/29 15:06:34;;;;;;;54.08;27.20;;;;;;;;;;10435366;27;20059;-64
2020/12/29 15:11:32;;;;;;;56.10;31.30;;;;;;;;;;10437936;27;20042;-63
2020/12/29 15:16:29;;;;;;;95.30;52.90;;;;;;;;;;10437697;27;20062;-63
2020/12/29 15:21:27;;;;;;;48.97;33.17;;;;;;;;;;10436716;27;20077;-63
2020/12/29 15:26:24;;;;;;;82.65;46.33;;;;;;;;;;10436973;27;20115;-62
2020/12/29 15:31:22;;;;;;;126.10;113.10;;;;;;;;;;10436992;28;20062;-62
2020/12/29 15:36:19;;;;;;;82.03;68.88;;;;;;;;;;10436828;28;20058;-64
2020/12/29 15:41:18;;;;;;;68.65;57.25;;;;;;;;;;10434461;28;20093;-63
2020/12/29 15:46:15;;;;;;;86.22;71.53;;;;;;;;;;10434614;28;20039;-62
2020/12/29 15:51:13;;;;;;;75.85;64.00;;;;;;;;;;10436261;28;20063;-62
2020/12/29 15:56:19;;;;;;;16.67;14.32;;;;;;;;;;10437066;28;20067;-62
2020/12/29 16:01:16;;;;;;;15.45;11.52;;;;;;;;;;10435641;28;20085;-63
2020/12/29 16:06:14;;;;;;;20.70;14.10;;;;;;;;;;10436345;28;20056;-63
2020/12/29 16:11:12;;;;;;;20.10;13.38;;;;;;;;;;10436053;28;20075;-63
2020/12/29 16:16:10;;;;;;;23.48;16.80;;;;;;;;;;10435569;28;20070;-62
2020/12/29 16:21:07;;;;;;;24.80;14.90;;;;;;;;;;10436544;28;20066;-62
2020/12/29 16:26:06;;;;;;;20.38;13.85;;;;;;;;;;10435944;28;20172;-64
2020/12/29 16:31:03;;;;;;;21.20;16.13;;;;;;;;;;10437295;27;20094;-64
2020/12/29 16:36:01;;;;;;;18.33;13.93;;;;;;;;;;10425320;27;20089;-62
2020/12/29 16:40:59;;;;;;;17.65;12.25;;;;;;;;;;10441437;27;20437;-63
2020/12/29 16:45:56;;;;;;;18.20;13.93;;;;;;;;;;10443513;27;20074;-63
2020/12/29 16:50:53;;;;;;;33.45;22.60;;;;;;;;;;10442213;27;20097;-63
2020/12/29 16:55:51;;;;;;;24.52;18.17;;;;;;;;;;10442212;27;20046;-63
2020/12/29 17:00:49;;;;;;;29.23;21.27;;;;;;;;;;10441957;27;20074;-63
2020/12/29 17:05:46;;;;;;;28.17;20.00;;;;;;;;;;10442400;27;20476;-63
2020/12/29 17:10:44;;;;;;;24.90;17.25;;;;;;;;;;10442113;27;20453;-62
2020/12/29 17:15:42;;;;;;;28.85;21.38;;;;;;;;;;10440929;27;20070;-63
2020/12/29 17:20:39;;;;;;;34.70;24.58;;;;;;;;;;10441810;27;20453;-63
2020/12/29 17:25:36;;;;;;;67.00;37.45;;;;;;;;;;10439043;27;20504;-63
2020/12/29 17:30:34;;;;;;;68.13;42.10;;;;;;;;;;10440847;27;20500;-63
2020/12/29 17:35:32;;;;;;;136.82;68.75;;;;;;;;;;10440598;27;20412;-63
2020/12/29 17:40:29;;;;;;;49.13;33.33;;;;;;;;;;10441394;27;20063;-62
2020/12/29 17:45:27;;;;;;;27.35;20.17;;;;;;;;;;10439696;27;20055;-62
2020/12/29 17:50:24;;;;;;;121.00;79.85;;;;;;;;;;10440331;27;20073;-63
2020/12/29 17:55:22;;;;;;;112.95;78.53;;;;;;;;;;10422251;27;20050;-63
2020/12/29 18:00:20;;;;;;;77.03;54.78;;;;;;;;;;10437309;27;20074;-63
2020/12/29 18:05:17;;;;;;;165.35;113.43;;;;;;;;;;10436723;27;20078;-63
2020/12/29 18:10:15;;;;;;;53.95;38.13;;;;;;;;;;10440009;27;20150;-63
2020/12/29 18:15:13;;;;;;;35.80;27.90;;;;;;;;;;10439610;27;20307;-64
2020/12/29 18:20:11;;;;;;;36.03;27.05;;;;;;;;;;10440476;27;20073;-63
2020/12/29 18:25:08;;;;;;;27.15;20.20;;;;;;;;;;10441239;27;20066;-63
2020/12/29 18:30:06;;;;;;;32.10;27.52;;;;;;;;;;10427647;27;20063;-62
2020/12/29 18:35:05;;;;;;;32.10;23.55;;;;;;;;;;10420267;27;20050;-62
2020/12/29 18:40:03;;;;;;;34.30;27.00;;;;;;;;;;10430312;27;20082;-62
2020/12/29 18:45:00;;;;;;;38.72;28.70;;;;;;;;;;10437641;27;20135;-63
2020/12/29 18:49:58;;;;;;;35.10;25.80;;;;;;;;;;10437600;27;20035;-62
2020/12/29 18:54:57;;;;;;;39.50;26.42;;;;;;;;;;10436829;27;20050;-61
2020/12/29 18:59:55;;;;;;;31.45;23.40;;;;;;;;;;10436723;27;20063;-62
2020/12/29 19:04:54;;;;;;;36.20;19.42;;;;;;;;;;10436654;27;20070;-62
2020/12/29 19:09:52;;;;;;;36.80;19.05;;;;;;;;;;10431299;27;20055;-62
2020/12/29 19:14:50;;;;;;;30.27;18.42;;;;;;;;;;10438257;27;20051;-63
2020/12/29 19:19:47;;;;;;;104.50;72.80;;;;;;;;;;10418838;27;20078;-61
2020/12/29 19:24:47;;;;;;;96.05;68.97;;;;;;;;;;10437316;27;20047;-62
2020/12/29 19:29:44;;;;;;;76.90;48.22;;;;;;;;;;10436822;28;20469;-62
2020/12/29 19:34:44;;;;;;;81.65;49.17;;;;;;;;;;10436832;28;20071;-61
2020/12/29 19:39:42;;;;;;;53.30;38.00;;;;;;;;;;10433383;27;20106;-61
2020/12/29 19:44:40;;;;;;;45.63;32.67;;;;;;;;;;10434328;27;20085;-62
2020/12/29 19:49:38;;;;;;;45.40;33.60;;;;;;;;;;10436845;28;20035;-62
2020/12/29 19:54:36;;;;;;;47.75;32.92;;;;;;;;;;10436559;28;20081;-61
2020/12/29 19:59:34;;;;;;;42.70;31.13;;;;;;;;;;10434975;28;20066;-62
2020/12/29 20:04:31;;;;;;;38.50;29.65;;;;;;;;;;10438513;27;20039;-62
2020/12/29 20:09:28;;;;;;;50.08;34.13;;;;;;;;;;10444898;27;20065;-61
2020/12/29 20:14:28;;;;;;;68.38;49.70;;;;;;;;;;10440964;27;20063;-62
2020/12/29 20:19:28;;;;;;;69.80;41.80;;;;;;;;;;10421489;27;20097;-61
2020/12/29 20:24:25;;;;;;;62.70;35.45;;;;;;;;;;10440413;27;20062;-62
2020/12/29 20:29:23;;;;;;;92.22;55.78;;;;;;;;;;10439850;27;20362;-62
2020/12/29 20:34:21;;;;;;;79.38;46.10;;;;;;;;;;10444234;27;20539;-62
2020/12/29 20:39:18;;;;;;;73.53;45.45;;;;;;;;;;10444205;27;20078;-62
2020/12/29 20:44:16;;;;;;;58.35;36.30;;;;;;;;;;10442139;27;20545;-62
2020/12/29 20:49:13;;;;;;;41.38;23.98;;;;;;;;;;10445340;27;20073;-63
2020/12/29 20:54:11;;;;;;;65.65;46.97;;;;;;;;;;10443673;27;20481;-62
2020/12/29 20:59:09;;;;;;;45.03;30.33;;;;;;;;;;10443613;27;20090;-63
2020/12/29 21:04:10;;;;;;;32.35;20.23;;;;;;;;;;10444012;27;20035;-63
2020/12/29 21:09:08;;;;;;;93.60;58.53;;;;;;;;;;10443990;27;20614;-63
2020/12/29 21:14:06;;;;;;;64.55;41.03;;;;;;;;;;10443406;27;20066;-62
2020/12/29 21:19:04;;;;;;;91.82;59.38;;;;;;;;;;10442403;27;20074;-62
2020/12/29 21:24:02;;;;;;;118.57;82.22;;;;;;;;;;10443231;27;20451;-62
2020/12/29 21:28:59;;;;;;;146.02;89.30;;;;;;;;;;10442314;27;20105;-63
2020/12/29 21:33:58;;;;;;;118.88;77.25;;;;;;;;;;10421378;27;20040;-62
2020/12/29 21:38:56;;;;;;;69.93;50.30;;;;;;;;;;10440041;27;20091;-63
2020/12/29 21:43:53;;;;;;;137.80;85.50;;;;;;;;;;10442010;27;20083;-62
2020/12/29 21:48:51;;;;;;;171.70;109.25;;;;;;;;;;10442671;27;20602;-63
2020/12/29 21:53:49;;;;;;;113.00;70.65;;;;;;;;;;10438641;27;20086;-61
2020/12/29 21:58:47;;;;;;;107.75;68.97;;;;;;;;;;10427722;27;20074;-61
2020/12/29 22:03:45;;;;;;;61.92;41.80;;;;;;;;;;10436614;27;20078;-61
2020/12/29 22:08:43;;;;;;;143.23;90.90;;;;;;;;;;10426221;27;20062;-61
2020/12/29 22:13:58;;;;;;;76.75;48.08;;;;;;;;;;10435992;27;20066;-61
2020/12/29 22:18:55;;;;;;;122.82;75.80;;;;;;;;;;10440806;27;20078;-62
2020/12/29 22:23:55;;;;;;;95.50;58.47;;;;;;;;;;10436941;27;20089;-62
2020/12/29 22:28:52;;;;;;;67.63;41.85;;;;;;;;;;10435520;27;20062;-61
2020/12/29 22:33:50;;;;;;;67.53;42.40;;;;;;;;;;10431031;27;20055;-61
2020/12/29 22:38:48;;;;;;;74.50;45.95;;;;;;;;;;10433781;27;20077;-61
2020/12/29 22:43:46;;;;;;;109.15;61.00;;;;;;;;;;10435115;27;20062;-61
2020/12/29 22:48:44;;;;;;;84.60;45.92;;;;;;;;;;10437819;27;20526;-62
2020/12/29 22:53:42;;;;;;;81.82;43.72;;;;;;;;;;10435271;27;20070;-63
2020/12/29 22:58:40;;;;;;;77.50;40.35;;;;;;;;;;10419345;27;20093;-61
2020/12/29 23:03:37;;;;;;;90.82;49.75;;;;;;;;;;10436629;27;20059;-61
2020/12/29 23:08:35;;;;;;;109.50;56.63;;;;;;;;;;10432627;27;20070;-62
2020/12/29 23:13:33;;;;;;;88.10;45.55;;;;;;;;;;10435249;27;20069;-60
2020/12/29 23:18:30;;;;;;;132.73;58.13;;;;;;;;;;10434471;27;20063;-61
2020/12/29 23:23:29;;;;;;;52.75;31.42;;;;;;;;;;10433934;27;20067;-62
2020/12/29 23:28:27;;;;;;;33.13;20.48;;;;;;;;;;10434472;27;20479;-62
2020/12/29 23:33:25;;;;;;;70.65;44.92;;;;;;;;;;10437663;28;20040;-62
2020/12/29 23:38:23;;;;;;;91.15;57.15;;;;;;;;;;10437671;28;20047;-62
2020/12/29 23:43:20;;;;;;;85.35;54.10;;;;;;;;;;10444410;27;20043;-62
2020/12/29 23:48:17;;;;;;;79.10;52.83;;;;;;;;;;10446806;27;20515;-62
2020/12/29 23:53:15;;;;;;;64.68;41.92;;;;;;;;;;10446984;27;20051;-62
2020/12/29 23:58:13;;;;;;;56.35;36.67;;;;;;;;;;10445739;27;20512;-61
